Time;durP1;ratioP1;P1;durP2;ratioP2;P2;SDS_P1;SDS_P2;PMS_P1;PMS_P2;Temp;Humidity;BMP_temperature;BMP_pressure;BME280_temperature;BME280_humidity;BME280_pressure;Samples;Min_cycle;Max_cycle;Signal;HPM_P1;HPM_P2
2021/09/24 00:00:52;;;;;;;2.53;1.27;;;;;;;17.84;70.35;100834.13;4995455;28;20436;-95
2021/09/24 00:03:17;;;;;;;2.55;1.50;;;;;;;17.77;70.86;100831.16;4983670;28;20026;-94
2021/09/24 00:05:43;;;;;;;5.22;1.35;;;;;;;17.86;70.43;100832.16;4993403;28;20026;-94
2021/09/24 00:08:09;;;;;;;5.85;1.60;;;;;;;17.76;70.73;100829.47;4993511;28;20023;-94
2021/09/24 00:10:34;;;;;;;4.13;1.38;;;;;;;17.81;70.06;100816.63;4994094;28;20026;-94
2021/09/24 00:13:00;;;;;;;4.30;1.50;;;;;;;17.78;70.42;100827.53;4993807;28;20032;-94
2021/09/24 00:15:25;;;;;;;3.58;1.40;;;;;;;17.73;71.08;100818.28;4993520;28;20044;-95
2021/09/24 00:17:50;;;;;;;5.32;1.20;;;;;;;17.71;70.62;100812.28;4993347;28;20030;-96
2021/09/24 00:20:16;;;;;;;5.57;1.40;;;;;;;17.77;70.07;100815.25;4993645;28;20030;-93
2021/09/24 00:22:42;;;;;;;3.35;1.20;;;;;;;17.77;69.98;100811.72;4993511;28;20058;-94
2021/09/24 00:25:08;;;;;;;5.30;1.50;;;;;;;17.74;70.12;100820.00;4993530;28;20065;-95
2021/09/24 00:27:34;;;;;;;5.05;1.33;;;;;;;17.75;70.51;100814.53;4993239;28;20026;-96
2021/09/24 00:29:59;;;;;;;5.00;1.33;;;;;;;17.71;70.68;100812.28;4993535;28;20026;-95
2021/09/24 00:32:24;;;;;;;4.50;2.28;;;;;;;17.77;71.54;100817.03;4993198;28;20050;-95
2021/09/24 00:34:50;;;;;;;5.13;1.63;;;;;;;17.83;71.11;100814.69;4992419;28;20485;-95
2021/09/24 00:37:16;;;;;;;4.00;1.60;;;;;;;17.82;70.90;100802.34;4993170;28;20033;-95
2021/09/24 00:39:42;;;;;;;4.07;1.58;;;;;;;17.83;70.68;100805.84;4993235;28;20419;-95
2021/09/24 00:42:07;;;;;;;8.05;2.05;;;;;;;17.74;70.89;100796.09;4992749;28;20015;-95
2021/09/24 00:44:50;;;;;;;5.70;2.10;;;;;;;17.72;70.70;100806.00;4992943;28;20023;-95
2021/09/24 00:47:17;;;;;;;6.78;1.95;;;;;;;17.79;70.53;100800.00;4992235;28;20046;-94
2021/09/24 00:49:43;;;;;;;6.78;3.13;;;;;;;17.81;70.27;100794.53;4992325;28;20115;-96
2021/09/24 00:52:08;;;;;;;3.50;1.92;;;;;;;17.85;70.16;100795.94;4992443;28;20121;-95
2021/09/24 00:54:34;;;;;;;4.45;2.30;;;;;;;17.81;70.08;100784.75;4993060;28;20503;-95
2021/09/24 00:57:03;;;;;;;5.88;2.20;;;;;;;17.80;70.49;100784.88;4992946;28;20030;-94
2021/09/24 00:59:29;;;;;;;4.05;1.95;;;;;;;17.73;70.35;100789.94;4993063;28;20026;-94
2021/09/24 01:01:55;;;;;;;5.45;1.80;;;;;;;17.66;70.52;100782.69;4992861;28;20065;-95
2021/09/24 01:04:21;;;;;;;4.45;1.48;;;;;;;17.64;70.38;100780.16;4992548;28;20037;-95
2021/09/24 01:06:47;;;;;;;5.97;2.20;;;;;;;17.51;70.46;100777.78;4992007;28;20105;-96
2021/09/24 01:09:12;;;;;;;6.20;2.22;;;;;;;17.53;71.25;100782.94;4992438;28;20027;-95
2021/09/24 01:11:38;;;;;;;5.05;2.75;;;;;;;17.48;72.07;100780.72;4991880;28;20034;-95
2021/09/24 01:14:04;;;;;;;6.20;2.67;;;;;;;17.52;72.13;100778.63;4992692;28;20397;-96
2021/09/24 01:16:30;;;;;;;9.15;2.75;;;;;;;17.54;72.09;100781.97;4999914;28;20030;-95
2021/09/24 01:18:56;;;;;;;6.05;2.30;;;;;;;17.62;72.42;100774.97;5002499;28;20034;-95
2021/09/24 01:21:21;;;;;;;6.55;2.33;;;;;;;17.56;72.17;100769.41;5005397;28;20030;-95
2021/09/24 01:23:47;;;;;;;2.92;2.15;;;;;;;17.37;73.36;100776.38;5006242;28;20030;-95
2021/09/24 01:26:13;;;;;;;4.65;1.85;;;;;;;17.57;71.89;100766.59;5010892;28;20054;-94
2021/09/24 01:28:38;;;;;;;5.90;2.83;;;;;;;17.13;73.60;100757.38;5005127;28;20049;-95
2021/09/24 01:31:04;;;;;;;3.58;2.25;;;;;;;17.45;72.61;100752.63;5008972;28;20030;-94
2021/09/24 01:33:31;;;;;;;8.48;2.88;;;;;;;17.35;72.92;100749.13;5013226;28;20018;-95
2021/09/24 01:35:56;;;;;;;6.22;2.50;;;;;;;17.33;72.12;100737.81;5016574;28;20006;-94
2021/09/24 01:38:22;;;;;;;7.68;3.40;;;;;;;17.41;72.00;100735.31;5014875;28;20046;-95
2021/09/24 01:40:47;;;;;;;6.47;3.85;;;;;;;17.43;72.09;100733.34;5014107;28;20030;-95
2021/09/24 01:43:13;;;;;;;9.27;4.05;;;;;;;17.38;71.40;100730.28;5014522;28;20032;-94
2021/09/24 01:45:38;;;;;;;10.13;4.45;;;;;;;17.36;72.19;100739.38;5004046;28;20033;-92
2021/09/24 01:48:04;;;;;;;8.45;4.70;;;;;;;17.25;72.66;100722.59;5004052;28;20022;-93
2021/09/24 01:50:29;;;;;;;7.95;4.47;;;;;;;17.31;72.12;100723.84;5010034;28;20057;-95
2021/09/24 01:52:55;;;;;;;13.18;4.90;;;;;;;17.13;72.47;100729.03;5011134;28;20034;-93
2021/09/24 01:55:20;;;;;;;10.32;4.72;;;;;;;17.37;71.92;100733.91;5012806;28;20027;-94
2021/09/24 01:57:46;;;;;;;15.57;5.45;;;;;;;17.33;71.96;100737.00;5016103;28;20015;-92
2021/09/24 02:00:13;;;;;;;12.45;5.32;;;;;;;17.31;71.61;100734.47;5017967;28;20041;-93
2021/09/24 02:02:38;;;;;;;12.18;4.75;;;;;;;17.13;72.11;100730.84;5020003;28;20045;-92
2021/09/24 02:05:06;;;;;;;10.13;4.97;;;;;;;17.25;71.60;100733.22;5014790;28;20018;-95
2021/09/24 02:07:31;;;;;;;16.30;5.90;;;;;;;17.02;73.01;100724.69;5009568;28;20037;-91
2021/09/24 02:09:57;;;;;;;13.20;5.38;;;;;;;17.14;71.93;100730.72;5015643;28;20053;-93
2021/09/24 02:12:22;;;;;;;9.40;5.75;;;;;;;17.18;71.19;100713.53;5015498;28;20097;-95
2021/09/24 02:14:48;;;;;;;9.60;4.97;;;;;;;17.16;71.00;100719.94;5016459;28;20034;-94
2021/09/24 02:17:13;;;;;;;9.48;5.68;;;;;;;17.05;71.25;100721.75;5014648;28;20497;-94
2021/09/24 02:19:38;;;;;;;12.45;5.40;;;;;;;17.14;71.37;100728.06;4999060;28;20030;-94
2021/09/24 02:22:04;;;;;;;11.68;5.60;;;;;;;17.00;71.13;100726.66;4996930;28;20515;-94
2021/09/24 02:24:29;;;;;;;15.48;5.90;;;;;;;17.04;71.29;100728.06;4997983;28;20031;-93
2021/09/24 02:26:56;;;;;;;14.73;6.93;;;;;;;17.07;71.17;100726.09;4998128;28;20385;-94
2021/09/24 02:29:21;;;;;;;11.50;5.90;;;;;;;17.11;70.74;100730.16;4996425;28;20130;-94
2021/09/24 02:31:46;;;;;;;12.23;6.10;;;;;;;17.09;70.69;100730.28;4996277;28;20073;-94
2021/09/24 02:34:12;;;;;;;9.23;5.65;;;;;;;17.08;70.33;100738.38;4997336;28;20381;-94
2021/09/24 02:36:38;;;;;;;8.98;4.65;;;;;;;17.09;70.24;100735.59;4995745;28;20500;-94
2021/09/24 02:39:05;;;;;;;10.00;5.28;;;;;;;17.05;70.19;100740.31;4995063;28;20040;-95
2021/09/24 02:41:31;;;;;;;9.23;4.55;;;;;;;16.94;69.94;100729.88;4997103;28;20022;-95
2021/09/24 02:43:56;;;;;;;9.48;5.00;;;;;;;16.95;69.59;100720.91;4996651;28;20033;-96
2021/09/24 02:46:21;;;;;;;17.00;5.72;;;;;;;16.92;69.87;100731.78;4990515;28;20111;-95
2021/09/24 02:48:47;;;;;;;5.90;4.45;;;;;;;16.95;70.01;100731.53;4999754;28;20396;-86
2021/09/24 02:51:12;;;;;;;8.32;5.03;;;;;;;16.85;69.96;100722.72;4994932;28;20049;-86
2021/09/24 02:53:38;;;;;;;6.38;4.13;;;;;;;16.86;70.18;100724.38;4995031;28;20034;-85
2021/09/24 02:56:04;;;;;;;8.02;4.38;;;;;;;16.80;69.98;100725.72;4986951;28;20436;-94
2021/09/24 02:58:29;;;;;;;9.80;4.07;;;;;;;16.82;70.01;100720.31;4986216;28;20031;-94
2021/09/24 03:00:54;;;;;;;7.82;4.18;;;;;;;16.72;70.28;100717.63;4987340;28;20030;-94
2021/09/24 03:03:20;;;;;;;10.32;4.50;;;;;;;16.65;69.90;100714.69;4994379;28;20117;-93
2021/09/24 03:05:45;;;;;;;9.73;4.53;;;;;;;16.62;70.20;100720.25;4995814;28;20034;-93
2021/09/24 03:08:10;;;;;;;11.77;4.43;;;;;;;16.60;70.61;100718.72;4995974;28;20025;-95
2021/09/24 03:10:36;;;;;;;13.30;5.93;;;;;;;16.54;70.88;100703.38;4996012;28;20420;-95
2021/09/24 03:13:02;;;;;;;10.80;4.07;;;;;;;16.59;70.59;100712.59;4994232;28;20117;-92
2021/09/24 03:15:28;;;;;;;8.05;3.75;;;;;;;16.60;70.44;100703.66;4996056;28;20022;-95
2021/09/24 03:17:54;;;;;;;7.53;3.08;;;;;;;16.63;70.05;100706.03;4994455;28;20022;-96
2021/09/24 03:20:20;;;;;;;7.15;3.17;;;;;;;16.67;69.61;100709.25;4994196;28;20088;-93
2021/09/24 03:22:45;;;;;;;5.75;2.75;;;;;;;16.66;69.25;100705.75;4995267;28;20061;-94
2021/09/24 03:25:10;;;;;;;5.40;3.15;;;;;;;16.62;69.52;100704.34;4995127;28;20023;-94
2021/09/24 03:27:36;;;;;;;6.50;2.50;;;;;;;16.58;69.60;100707.41;4993822;28;20034;-93
2021/09/24 03:30:03;;;;;;;8.57;3.17;;;;;;;16.55;69.72;100702.41;4993878;28;20018;-91
2021/09/24 03:32:29;;;;;;;5.25;2.85;;;;;;;16.56;69.16;100710.19;4993274;28;20503;-93
2021/09/24 03:34:54;;;;;;;14.57;4.05;;;;;;;16.50;69.70;100707.25;4993757;28;20027;-92
2021/09/24 03:37:20;;;;;;;11.63;3.97;;;;;;;16.52;69.30;100703.50;4994398;28;20508;-93
2021/09/24 03:39:45;;;;;;;9.45;4.28;;;;;;;16.45;69.59;100699.72;4993492;28;20033;-94
2021/09/24 03:42:11;;;;;;;8.57;3.22;;;;;;;16.52;69.19;100695.53;4994450;28;20501;-93
2021/09/24 03:44:37;;;;;;;9.32;4.15;;;;;;;16.39;69.33;100693.16;4994799;28;20022;-94
2021/09/24 03:47:04;;;;;;;6.75;3.72;;;;;;;16.40;69.15;100697.47;4994398;28;20481;-94
2021/09/24 03:49:30;;;;;;;9.65;3.67;;;;;;;16.25;69.78;100689.06;4994578;28;20489;-93
2021/09/24 03:51:55;;;;;;;10.88;4.28;;;;;;;16.15;70.32;100695.28;4994026;28;20046;-92
2021/09/24 03:54:21;;;;;;;9.93;4.15;;;;;;;16.40;69.83;100696.63;4993418;28;20056;-96
2021/09/24 03:56:47;;;;;;;12.77;4.85;;;;;;;16.03;70.45;100684.78;4993959;28;20062;-95
2021/09/24 03:59:13;;;;;;;13.52;4.00;;;;;;;16.26;69.93;100688.06;4993334;28;20065;-93
2021/09/24 04:01:39;;;;;;;8.25;4.20;;;;;;;16.19;70.48;100689.59;4993745;28;20026;-93
2021/09/24 04:04:05;;;;;;;7.85;3.85;;;;;;;16.33;69.73;100690.19;4993788;28;20029;-93
2021/09/24 04:06:31;;;;;;;6.30;3.25;;;;;;;16.40;69.40;100692.16;4994372;28;20022;-93
2021/09/24 04:08:57;;;;;;;6.32;3.33;;;;;;;16.47;68.80;100687.19;4992798;28;20543;-94
2021/09/24 04:11:23;;;;;;;8.15;3.30;;;;;;;16.43;68.70;100686.59;4994435;28;20026;-94
2021/09/24 04:13:49;;;;;;;8.10;3.80;;;;;;;16.33;69.03;100679.59;4994057;28;20034;-94
2021/09/24 04:16:15;;;;;;;9.15;3.85;;;;;;;16.30;69.19;100679.88;4994150;28;20073;-94
2021/09/24 04:18:40;;;;;;;11.68;5.22;;;;;;;16.21;69.86;100684.13;4992897;28;20388;-94
2021/09/24 04:21:06;;;;;;;7.35;3.90;;;;;;;16.39;69.38;100679.03;4993727;28;20034;-94
2021/09/24 04:23:31;;;;;;;9.10;3.58;;;;;;;16.38;69.19;100674.72;4992575;28;20033;-94
2021/09/24 04:25:57;;;;;;;8.52;3.92;;;;;;;16.34;69.26;100673.31;4993859;28;20026;-92
2021/09/24 04:28:22;;;;;;;9.05;3.78;;;;;;;16.26;69.27;100674.81;4992349;28;20018;-93
2021/09/24 04:30:47;;;;;;;6.45;3.78;;;;;;;16.31;69.09;100673.56;4993725;28;20027;-93
2021/09/24 04:33:13;;;;;;;10.70;3.60;;;;;;;16.43;68.92;100676.00;4992670;28;20037;-93
2021/09/24 04:35:38;;;;;;;9.07;3.83;;;;;;;16.37;68.82;100671.25;4993985;28;20109;-93
2021/09/24 04:38:04;;;;;;;7.63;3.80;;;;;;;16.31;68.76;100668.28;4992790;28;20037;-94
2021/09/24 04:40:30;;;;;;;12.93;4.72;;;;;;;16.25;69.14;100673.16;4992537;28;20162;-95
2021/09/24 04:42:55;;;;;;;13.20;4.72;;;;;;;16.25;68.83;100667.00;4993709;28;20362;-94
2021/09/24 04:45:21;;;;;;;7.82;4.40;;;;;;;16.08;69.91;100665.84;4993261;28;20037;-93
2021/09/24 04:47:46;;;;;;;13.95;6.72;;;;;;;16.13;71.26;100666.25;4993699;28;20420;-93
2021/09/24 04:50:12;;;;;;;15.55;7.97;;;;;;;16.26;70.79;100655.44;4993649;28;20018;-93
2021/09/24 04:52:37;;;;;;;20.35;9.07;;;;;;;16.39;70.81;100673.72;4993556;28;20034;-94
2021/09/24 04:55:05;;;;;;;17.95;8.85;;;;;;;16.32;71.20;100660.19;4992324;28;20033;-92
2021/09/24 04:57:31;;;;;;;16.77;8.45;;;;;;;16.39;70.56;100664.00;4993254;28;20058;-92
2021/09/24 04:59:56;;;;;;;15.20;8.43;;;;;;;16.42;71.19;100668.19;4993583;28;20064;-91
2021/09/24 05:02:21;;;;;;;15.38;9.02;;;;;;;16.48;71.22;100662.31;4992913;28;20026;-92
2021/09/24 05:04:47;;;;;;;18.73;9.77;;;;;;;16.59;70.88;100664.88;4993149;28;20054;-92
2021/09/24 05:07:12;;;;;;;17.88;9.75;;;;;;;16.56;71.26;100656.34;4993049;28;20481;-92
2021/09/24 05:09:38;;;;;;;16.70;9.48;;;;;;;16.49;71.97;100658.72;4992992;28;20034;-92
2021/09/24 05:12:04;;;;;;;19.05;9.55;;;;;;;16.41;72.60;100648.78;4993025;28;20034;-92
2021/09/24 05:14:30;;;;;;;22.25;10.35;;;;;;;16.55;72.19;100654.69;4993113;28;20030;-91
2021/09/24 05:16:55;;;;;;;20.80;9.85;;;;;;;16.56;72.08;100659.81;4992832;28;20085;-93
2021/09/24 05:19:20;;;;;;;18.55;10.18;;;;;;;16.67;71.66;100653.59;4992966;28;20167;-92
2021/09/24 05:21:46;;;;;;;19.58;9.55;;;;;;;16.68;71.11;100657.91;4991794;28;20034;-93
2021/09/24 05:24:12;;;;;;;19.02;10.52;;;;;;;16.68;71.89;100651.75;4993172;28;20030;-93
2021/09/24 05:26:38;;;;;;;15.68;8.90;;;;;;;16.65;71.82;100653.72;4992557;28;20060;-92
2021/09/24 05:29:03;;;;;;;15.82;9.25;;;;;;;16.79;71.32;100646.34;4992907;28;20022;-93
2021/09/24 05:31:29;;;;;;;15.73;9.63;;;;;;;16.70;71.68;100648.00;4992815;28;20026;-93
2021/09/24 05:33:54;;;;;;;14.45;7.90;;;;;;;16.78;70.90;100648.13;4992688;28;20473;-93
2021/09/24 05:36:20;;;;;;;15.98;8.25;;;;;;;16.77;70.93;100643.00;4992843;28;20088;-92
2021/09/24 05:38:46;;;;;;;16.17;9.50;;;;;;;16.66;71.15;100650.06;4982965;28;20489;-94
2021/09/24 05:41:11;;;;;;;15.15;8.68;;;;;;;16.77;71.40;100650.94;4989563;28;20018;-93
2021/09/24 05:43:37;;;;;;;15.07;8.02;;;;;;;16.61;72.44;100641.72;4990675;28;20026;-93
2021/09/24 05:46:03;;;;;;;14.10;8.73;;;;;;;16.66;72.66;100647.41;4990569;28;20498;-93
2021/09/24 05:48:29;;;;;;;18.77;9.52;;;;;;;16.64;73.21;100652.03;4991211;28;20388;-92
2021/09/24 05:50:55;;;;;;;24.77;10.23;;;;;;;16.74;73.72;100656.50;4991409;28;20030;-93
2021/09/24 05:53:21;;;;;;;14.57;9.23;;;;;;;16.85;73.77;100654.59;4992378;28;20632;-92
2021/09/24 05:55:46;;;;;;;22.50;11.70;;;;;;;16.96;74.01;100660.75;4991632;28;20110;-93
2021/09/24 05:58:12;;;;;;;24.05;11.35;;;;;;;16.86;75.45;100655.44;4992852;28;20034;-94
2021/09/24 06:00:37;;;;;;;16.63;10.18;;;;;;;17.14;74.06;100661.72;4994810;28;20027;-96
2021/09/24 06:03:03;;;;;;;17.52;10.60;;;;;;;17.27;74.09;100653.47;4996247;28;20060;-96
2021/09/24 06:05:28;;;;;;;19.98;11.27;;;;;;;17.34;73.77;100651.94;5002148;28;20049;-95
2021/09/24 06:07:54;;;;;;;26.75;13.88;;;;;;;17.19;75.48;100651.50;5091284;23;20080;-96
2021/09/24 06:10:19;;;;;;;22.20;13.90;;;;;;;17.15;76.67;100659.91;5019642;28;20080;-96
2021/09/24 06:12:48;;;;;;;31.67;15.77;;;;;;;17.19;76.74;100646.22;5019026;28;20064;-96
2021/09/24 06:15:15;;;;;;;32.70;16.60;;;;;;;17.34;76.47;100641.31;5015573;28;20022;-96
2021/09/24 06:17:41;;;;;;;35.70;18.13;;;;;;;17.39;75.82;100633.75;5014027;28;20022;-95
2021/09/24 06:20:07;;;;;;;37.83;18.27;;;;;;;17.53;75.62;100631.63;5013470;28;20023;-93
2021/09/24 06:22:32;;;;;;;32.38;18.23;;;;;;;17.45;75.28;100641.13;5005107;28;20459;-92
2021/09/24 06:24:58;;;;;;;30.80;17.38;;;;;;;17.34;77.07;100643.13;5011277;28;20046;-94
2021/09/24 06:27:24;;;;;;;28.25;17.67;;;;;;;17.57;75.62;100651.59;5011014;28;20033;-93
2021/09/24 06:29:52;;;;;;;32.30;17.80;;;;;;;17.65;75.11;100654.34;4976862;28;20465;-92
2021/09/24 06:32:18;;;;;;;29.98;17.10;;;;;;;17.74;74.28;100661.47;4972888;28;20056;-92
2021/09/24 06:34:45;;;;;;;33.28;17.92;;;;;;;17.78;73.87;100651.41;4978375;28;20026;-93
2021/09/24 06:37:11;;;;;;;28.95;16.15;;;;;;;17.72;74.10;100652.81;4998043;28;20045;-93
2021/09/24 06:39:37;;;;;;;23.42;14.88;;;;;;;17.82;74.12;100648.28;5003073;28;20030;-94
2021/09/24 06:42:03;;;;;;;25.23;16.40;;;;;;;17.70;74.66;100649.47;4990642;28;20412;-94
2021/09/24 06:44:28;;;;;;;29.77;14.57;;;;;;;17.86;74.00;100648.88;4991971;28;20045;-94
2021/09/24 06:46:54;;;;;;;23.77;13.43;;;;;;;17.95;73.77;100648.00;4995755;28;20030;-93
2021/09/24 06:49:22;;;;;;;21.27;13.07;;;;;;;18.00;73.16;100645.75;4995818;28;20089;-93
2021/09/24 06:51:49;;;;;;;24.63;11.82;;;;;;;18.09;73.24;100652.00;4994405;28;20026;-94
2021/09/24 06:54:14;;;;;;;24.27;10.85;;;;;;;18.08;73.64;100650.31;4995614;28;20085;-93
2021/09/24 06:56:40;;;;;;;20.13;10.55;;;;;;;18.02;73.77;100648.25;4995302;28;20022;-94
2021/09/24 06:59:05;;;;;;;23.23;9.93;;;;;;;18.05;74.06;100647.97;4995627;28;20401;-93
2021/09/24 07:01:30;;;;;;;18.42;8.98;;;;;;;18.20;73.05;100643.81;4995289;28;20030;-94
2021/09/24 07:03:56;;;;;;;16.58;8.85;;;;;;;18.20;73.69;100646.47;4995634;28;20026;-93
2021/09/24 07:06:21;;;;;;;13.52;8.65;;;;;;;18.26;73.32;100644.22;4997868;28;20519;-93
2021/09/24 07:08:47;;;;;;;19.88;9.32;;;;;;;18.22;73.70;100639.19;5007158;28;20041;-93
2021/09/24 07:11:12;;;;;;;17.40;8.15;;;;;;;18.25;73.62;100638.06;4994783;28;20036;-95
2021/09/24 07:13:38;;;;;;;21.20;8.27;;;;;;;18.33;74.08;100638.16;4995005;28;20033;-94
2021/09/24 07:16:05;;;;;;;18.00;8.32;;;;;;;18.34;74.07;100633.69;5011474;28;20037;-94
2021/09/24 07:18:31;;;;;;;20.13;7.28;;;;;;;18.54;73.49;100642.38;4993756;28;20097;-94
2021/09/24 07:20:56;;;;;;;14.10;7.20;;;;;;;18.45;74.33;100638.78;4993809;28;20468;-95
2021/09/24 07:23:22;;;;;;;18.58;6.82;;;;;;;18.66;73.66;100641.19;4993486;28;20392;-93
2021/09/24 07:25:49;;;;;;;17.23;7.72;;;;;;;18.71;73.33;100652.19;4994296;28;20112;-93
2021/09/24 07:28:14;;;;;;;15.45;6.30;;;;;;;18.51;74.56;100650.66;4996415;28;20027;-93
2021/09/24 07:30:40;;;;;;;18.08;6.47;;;;;;;18.74;73.91;100649.25;4999687;28;20041;-94
2021/09/24 07:33:05;;;;;;;12.13;6.55;;;;;;;18.74;73.35;100637.75;4992762;28;20401;-92
2021/09/24 07:35:31;;;;;;;16.50;6.63;;;;;;;18.70;73.78;100642.56;5010159;28;20105;-92
2021/09/24 07:37:56;;;;;;;20.17;6.85;;;;;;;18.60;73.95;100642.63;4999625;28;20492;-92
2021/09/24 07:40:21;;;;;;;19.90;6.65;;;;;;;18.57;73.60;100636.75;4994121;28;20112;-92
2021/09/24 07:42:47;;;;;;;18.20;6.88;;;;;;;18.51;74.89;100642.69;4994616;28;20036;-93
2021/09/24 07:45:12;;;;;;;12.65;6.53;;;;;;;18.83;74.07;100648.34;4994770;28;20034;-93
2021/09/24 07:47:38;;;;;;;15.70;7.03;;;;;;;19.06;72.82;100657.72;4993058;28;20027;-93
2021/09/24 07:50:04;;;;;;;17.77;6.72;;;;;;;19.06;73.12;100655.88;5004418;28;20100;-93
2021/09/24 07:52:31;;;;;;;12.02;5.82;;;;;;;19.17;71.98;100658.31;5012716;28;20030;-93
2021/09/24 07:54:58;;;;;;;12.10;5.75;;;;;;;18.86;72.62;100655.19;5012284;28;20396;-93
2021/09/24 07:57:23;;;;;;;21.52;7.07;;;;;;;19.12;72.78;100652.59;5012832;28;20040;-93
2021/09/24 07:59:48;;;;;;;11.57;5.18;;;;;;;19.26;71.85;100653.03;5014377;28;20105;-93
2021/09/24 08:02:14;;;;;;;12.23;5.88;;;;;;;19.27;72.03;100652.84;5014159;28;20057;-93
2021/09/24 08:04:39;;;;;;;32.13;6.47;;;;;;;19.36;71.37;100648.44;5013949;28;20022;-94
2021/09/24 08:07:06;;;;;;;17.35;5.60;;;;;;;19.70;71.66;100651.16;5013628;28;20029;-93
2021/09/24 08:09:32;;;;;;;15.45;5.45;;;;;;;19.95;70.31;100654.00;5012476;28;20092;-95
2021/09/24 08:11:57;;;;;;;10.68;4.72;;;;;;;20.23;69.46;100651.13;5000805;28;20026;-91
2021/09/24 08:14:23;;;;;;;12.73;4.18;;;;;;;20.55;69.67;100661.84;5012248;28;20385;-93
2021/09/24 08:16:48;;;;;;;13.52;4.43;;;;;;;21.90;65.34;100650.84;4997449;28;20030;-93
2021/09/24 08:19:13;;;;;;;14.63;3.95;;;;;;;22.35;63.17;100660.03;4994037;28;20096;-93
2021/09/24 08:21:39;;;;;;;13.88;3.30;;;;;;;23.35;59.51;100664.56;4993694;28;20034;-92
2021/09/24 08:24:04;;;;;;;13.00;3.00;;;;;;;24.12;57.73;100652.69;4994256;28;20109;-94
2021/09/24 08:26:30;;;;;;;7.95;2.90;;;;;;;25.28;55.26;100653.53;4994430;28;20031;-95
2021/09/24 08:28:55;;;;;;;5.57;2.33;;;;;;;25.31;53.39;100649.63;4992390;28;20035;-95
2021/09/24 08:31:21;;;;;;;13.05;2.83;;;;;;;26.13;51.28;100656.13;4994103;28;20037;-94
2021/09/24 08:33:47;;;;;;;8.88;2.35;;;;;;;27.09;49.63;100650.59;4992945;28;20397;-93
2021/09/24 08:36:13;;;;;;;10.35;2.35;;;;;;;26.82;50.30;100652.44;4993806;28;20022;-94
2021/09/24 08:38:39;;;;;;;9.68;3.22;;;;;;;27.70;47.69;100657.56;4992826;28;20062;-94
2021/09/24 08:41:05;;;;;;;6.30;2.10;;;;;;;26.75;49.13;100648.06;4992762;28;20050;-94
2021/09/24 08:43:31;;;;;;;9.18;2.45;;;;;;;28.11;46.42;100646.72;5003822;28;20026;-93
2021/09/24 08:45:56;;;;;;;5.10;2.15;;;;;;;29.03;45.66;100644.53;5013506;28;20038;-94
2021/09/24 08:48:22;;;;;;;7.68;1.70;;;;;;;28.93;44.52;100646.88;5012737;28;20029;-94
2021/09/24 08:50:50;;;;;;;5.78;1.67;;;;;;;29.42;43.62;100656.88;5013471;28;20028;-95
2021/09/24 08:53:16;;;;;;;6.90;1.85;;;;;;;29.06;43.15;100649.47;5012216;28;20033;-94
2021/09/24 08:55:44;;;;;;;10.32;1.52;;;;;;;29.70;41.04;100650.16;5012328;28;20381;-95
2021/09/24 08:58:09;;;;;;;4.60;1.38;;;;;;;29.46;41.72;100649.97;5002470;28;20117;-94
2021/09/24 09:00:35;;;;;;;4.35;1.33;;;;;;;30.13;41.91;100653.84;4992410;28;20113;-94
2021/09/24 09:03:02;;;;;;;6.70;1.30;;;;;;;29.75;40.66;100658.44;4992120;28;20109;-95
2021/09/24 09:05:34;;;;;;;9.48;1.67;;;;;;;30.87;39.80;100669.94;4992030;28;20033;-95
2021/09/24 09:08:24;;;;;;;7.30;1.20;;;;;;;29.59;40.51;100664.41;4992857;28;20109;-95
2021/09/24 09:11:01;;;;;;;9.43;1.70;;;;;;;30.61;38.91;100669.28;4993524;28;20033;-94
2021/09/24 09:13:32;;;;;;;6.30;1.67;;;;;;;30.80;38.67;100664.59;4993359;28;20065;-94
2021/09/24 09:16:07;;;;;;;5.63;0.98;;;;;;;31.14;39.07;100660.34;5011903;28;20396;-94
2021/09/24 09:18:37;;;;;;;5.18;1.30;;;;;;;31.35;37.88;100656.22;5013591;28;20500;-96
2021/09/24 09:21:05;;;;;;;6.83;1.20;;;;;;;31.18;38.21;100663.41;5000627;28;20034;-93
2021/09/24 09:23:33;;;;;;;5.97;1.10;;;;;;;31.25;37.78;100650.56;4993110;28;20397;-94
2021/09/24 09:26:02;;;;;;;10.73;1.83;;;;;;;31.73;36.21;100649.47;4993525;28;20027;-94
2021/09/24 09:28:30;;;;;;;8.23;1.85;;;;;;;31.43;36.43;100652.31;4996196;28;20026;-96
2021/09/24 09:30:56;;;;;;;7.68;1.65;;;;;;;32.06;36.65;100658.06;4995464;28;20023;-96
2021/09/24 09:33:23;;;;;;;7.45;1.40;;;;;;;31.85;36.34;100663.03;4997236;28;20026;-96
2021/09/24 09:35:56;;;;;;;8.88;1.95;;;;;;;32.60;34.91;100651.25;4992169;28;20049;-96
2021/09/24 09:38:41;;;;;;;7.35;1.52;;;;;;;33.07;34.71;100650.13;5000006;28;20109;-96
2021/09/24 09:41:10;;;;;;;6.78;1.50;;;;;;;33.85;34.06;100644.75;4996301;28;20042;-96
2021/09/24 09:44:01;;;;;;;6.53;1.38;;;;;;;33.82;34.45;100650.69;5009967;28;20555;-96
2021/09/24 09:46:34;;;;;;;10.63;1.10;;;;;;;34.06;33.46;100639.53;5029578;28;20034;-96
2021/09/24 09:49:12;;;;;;;6.95;1.55;;;;;;;34.05;33.69;100648.81;5018993;28;20124;-96
2021/09/24 09:51:41;;;;;;;6.00;1.30;;;;;;;33.71;33.67;100643.47;5024868;28;20090;-96
2021/09/24 09:54:08;;;;;;;8.98;1.58;;;;;;;34.19;33.43;100639.19;5024886;28;20610;-96
2021/09/24 09:56:35;;;;;;;5.32;0.90;;;;;;;34.65;32.56;100642.34;5032078;28;20033;-96
2021/09/24 09:59:23;;;;;;;6.60;1.20;;;;;;;35.43;31.98;100641.91;5036493;28;20026;-96
2021/09/24 10:02:06;;;;;;;6.28;1.77;;;;;;;33.57;33.73;100637.53;5096110;23;20046;-94
2021/09/24 10:04:43;;;;;;;4.90;1.35;;;;;;;32.86;34.94;100643.53;5008038;28;20033;-93
2021/09/24 10:07:19;;;;;;;7.63;1.27;;;;;;;33.23;35.18;100643.03;4996540;28;20078;-96
2021/09/24 10:09:47;;;;;;;5.53;1.55;;;;;;;32.49;35.97;100638.53;4993768;28;20030;-90
2021/09/24 10:12:16;;;;;;;4.85;1.00;;;;;;;31.82;36.91;100644.53;4992733;28;20045;-94
2021/09/24 10:14:42;;;;;;;5.30;1.10;;;;;;;31.30;37.81;100637.13;4991683;28;20030;-95
2021/09/24 10:17:08;;;;;;;7.45;1.73;;;;;;;29.57;40.52;100640.28;4993038;28;20026;-94
2021/09/24 10:19:33;;;;;;;6.65;1.05;;;;;;;30.20;40.22;100624.81;4993853;28;20500;-95
2021/09/24 10:21:58;;;;;;;5.25;1.08;;;;;;;30.23;39.83;100621.63;4996904;28;20030;-94
2021/09/24 10:24:24;;;;;;;5.03;1.17;;;;;;;30.53;40.29;100624.38;4996881;28;20059;-95
2021/09/24 10:26:57;;;;;;;7.95;1.60;;;;;;;30.42;40.95;100620.56;4984801;28;20545;-94
2021/09/24 10:29:26;;;;;;;5.47;0.90;;;;;;;29.80;41.41;100627.97;4977321;28;20046;-95
2021/09/24 10:31:52;;;;;;;3.75;0.93;;;;;;;30.05;41.20;100627.91;4976850;28;20049;-95
2021/09/24 10:34:19;;;;;;;4.22;0.88;;;;;;;29.99;41.96;100626.91;4981661;28;20540;-95
2021/09/24 10:36:55;;;;;;;4.63;1.10;;;;;;;30.32;41.66;100631.13;4996706;28;20037;-94
2021/09/24 10:39:30;;;;;;;5.80;1.35;;;;;;;29.70;41.99;100627.66;4975308;28;20034;-94
2021/09/24 10:42:17;;;;;;;5.15;1.20;;;;;;;30.69;41.36;100625.59;4975854;28;20022;-96
2021/09/24 10:45:11;;;;;;;2.67;1.15;;;;;;;30.33;41.70;100632.75;4975780;28;20563;-93
2021/09/24 10:47:56;;;;;;;3.90;0.75;;;;;;;30.27;41.39;100628.22;4976392;28;20496;-93
2021/09/24 10:53:17;;;;;;;3.55;1.20;;;;;;;29.29;43.84;100621.03;4982884;28;20089;-94
2021/09/24 10:56:09;;;;;;;6.82;1.15;;;;;;;28.75;44.39;100615.19;4995767;28;20081;-93
2021/09/24 10:58:42;;;;;;;4.10;1.25;;;;;;;28.87;44.93;100608.88;4995701;28;20023;-95
2021/09/24 11:01:15;;;;;;;5.45;1.20;;;;;;;28.83;45.42;100601.41;5010882;28;20042;-95
2021/09/24 11:03:57;;;;;;;5.88;1.40;;;;;;;28.46;45.69;100602.06;5010555;28;20034;-94
2021/09/24 11:06:43;;;;;;;2.92;0.85;;;;;;;28.58;45.84;100601.41;4984608;28;20061;-95
2021/09/24 11:09:14;;;;;;;5.40;1.30;;;;;;;28.88;45.59;100599.69;4975332;28;20027;-96
2021/09/24 11:11:42;;;;;;;4.35;0.95;;;;;;;28.67;45.64;100598.22;4975232;28;20031;-95
2021/09/24 11:14:43;;;;;;;4.70;1.30;;;;;;;28.11;46.99;100595.41;4975932;28;20085;-95
2021/09/24 11:17:11;;;;;;;6.50;1.60;;;;;;;29.26;46.60;100595.25;4964350;28;20039;-94
2021/09/24 11:19:45;;;;;;;3.65;1.10;;;;;;;29.60;44.44;100580.31;4975698;28;20082;-95
2021/09/24 11:22:37;;;;;;;6.63;1.30;;;;;;;29.83;44.16;100584.25;4976627;28;20069;-93
2021/09/24 11:25:02;;;;;;;4.97;1.45;;;;;;;30.53;42.77;100582.88;4975309;28;20050;-93